Time;durP1;ratioP1;P1;durP2;ratioP2;P2;SDS_P1;SDS_P2;PMS_P1;PMS_P2;Temp;Humidity;BMP_temperature;BMP_pressure;BME280_temperature;BME280_humidity;BME280_pressure;Samples;Min_cycle;Max_cycle;Signal;HPM_P1;HPM_P2
2022/09/26 00:01:25;;;;;;;4.15;2.25;;;;;;;10.23;98.64;97914.22;4186639;28;20055;-71
2022/09/26 00:03:25;;;;;;;5.90;3.10;;;;;;;10.18;98.56;97923.66;4186311;28;20123;-71
2022/09/26 00:05:25;;;;;;;5.15;3.00;;;;;;;10.22;97.87;97924.47;4186469;28;20425;-71
2022/09/26 00:07:25;;;;;;;8.15;3.08;;;;;;;10.20;98.71;97923.25;4186079;28;20060;-71
2022/09/26 00:09:27;;;;;;;8.65;3.10;;;;;;;10.20;98.07;97920.50;4186084;28;20028;-71
2022/09/26 00:11:30;;;;;;;5.63;3.20;;;;;;;10.28;97.96;97919.38;4185586;28;20087;-71
2022/09/26 00:13:33;;;;;;;5.97;3.20;;;;;;;10.27;97.72;97918.59;4186174;28;20481;-71
2022/09/26 00:15:33;;;;;;;5.95;3.55;;;;;;;10.23;98.13;97911.44;4186128;28;20052;-71
2022/09/26 00:17:33;;;;;;;5.07;3.17;;;;;;;10.20;98.52;97920.50;4185759;28;20040;-71
2022/09/26 00:19:34;;;;;;;6.72;3.05;;;;;;;10.22;98.18;97924.47;4185748;28;20393;-71
2022/09/26 00:21:34;;;;;;;6.00;3.17;;;;;;;10.17;98.74;97911.00;4186365;28;20550;-71
2022/09/26 00:23:35;;;;;;;6.18;3.53;;;;;;;10.16;98.64;97922.44;4170483;28;20113;-71
2022/09/26 00:25:36;;;;;;;8.02;3.53;;;;;;;10.09;99.09;97920.44;4186103;28;20119;-71
2022/09/26 00:27:36;;;;;;;3.83;2.88;;;;;;;10.08;99.19;97919.66;4186265;28;20135;-71
2022/09/26 00:29:37;;;;;;;5.03;3.05;;;;;;;10.04;99.00;97909.78;4185191;28;20047;-71
2022/09/26 00:31:42;;;;;;;9.95;3.10;;;;;;;10.06;99.23;97916.47;4186022;28;20068;-71
2022/09/26 00:33:42;;;;;;;4.68;3.00;;;;;;;10.05;99.36;97914.13;4186244;28;20416;-71
2022/09/26 00:35:53;;;;;;;6.85;3.25;;;;;;;10.04;99.51;97913.31;4186124;28;20052;-71
2022/09/26 00:37:53;;;;;;;5.10;2.88;;;;;;;10.04;99.47;97913.31;4185178;28;20056;-71
2022/09/26 00:39:53;;;;;;;7.47;3.20;;;;;;;10.02;98.76;97910.16;4185432;28;20429;-71
2022/09/26 00:41:54;;;;;;;3.92;3.10;;;;;;;10.02;98.87;97909.38;4186468;28;20074;-71
2022/09/26 00:43:56;;;;;;;6.82;2.97;;;;;;;10.00;98.71;97908.94;4185293;28;20513;-71
2022/09/26 00:46:01;;;;;;;5.32;3.40;;;;;;;9.99;98.64;97902.63;4185890;28;20052;-71
2022/09/26 00:48:05;;;;;;;4.90;2.75;;;;;;;9.99;98.88;97904.59;4185909;28;20076;-71
2022/09/26 00:50:36;;;;;;;4.20;2.95;;;;;;;9.98;98.19;97901.06;4185658;28;20135;-71
2022/09/26 00:52:42;;;;;;;4.50;3.15;;;;;;;9.94;98.03;97900.25;4185140;28;20098;-71
2022/09/26 00:54:46;;;;;;;4.88;2.78;;;;;;;9.95;98.29;97901.03;4185670;28;20053;-71
2022/09/26 00:56:49;;;;;;;7.35;2.78;;;;;;;9.91;98.29;97900.22;4185428;28;20099;-71
2022/09/26 00:58:59;;;;;;;4.32;3.10;;;;;;;9.89;97.74;97900.63;4185469;28;20055;-71
2022/09/26 01:00:59;;;;;;;4.15;3.10;;;;;;;9.85;97.85;97900.59;4186344;28;20052;-71
2022/09/26 01:03:00;;;;;;;6.78;3.15;;;;;;;9.83;97.98;97899.41;4186039;28;20415;-71
2022/09/26 01:05:04;;;;;;;4.05;2.50;;;;;;;9.84;97.60;97892.69;4185461;28;20455;-71
2022/09/26 01:07:11;;;;;;;3.58;2.55;;;;;;;9.83;98.01;97897.41;4184969;28;20049;-71
2022/09/26 01:09:13;;;;;;;3.95;2.85;;;;;;;9.81;97.65;97890.72;4185308;28;20056;-71
2022/09/26 01:11:14;;;;;;;5.88;4.55;;;;;;;9.83;97.65;97896.63;4186025;28;20151;-71
2022/09/26 01:13:15;;;;;;;6.72;4.07;;;;;;;9.76;98.28;97899.34;4185776;28;20075;-71
2022/09/26 01:15:15;;;;;;;4.75;3.05;;;;;;;9.70;98.37;97892.63;4185284;28;20052;-71
2022/09/26 01:17:16;;;;;;;4.93;3.17;;;;;;;9.66;98.69;97897.31;4185451;28;20045;-71
2022/09/26 01:19:27;;;;;;;4.63;3.00;;;;;;;9.57;99.04;97895.69;4185809;28;20040;-71
2022/09/26 01:22:05;;;;;;;6.90;3.15;;;;;;;9.49;99.01;97883.03;4185948;28;20423;-71
2022/09/26 01:24:31;;;;;;;7.05;2.95;;;;;;;9.45;99.57;97879.47;4174315;28;20045;-71
2022/09/26 01:26:46;;;;;;;4.22;2.83;;;;;;;9.42;99.77;97876.66;4188466;28;20083;-71
2022/09/26 01:29:25;;;;;;;3.28;2.60;;;;;;;9.37;99.17;97879.81;4188698;28;20463;-71
2022/09/26 01:32:47;;;;;;;4.72;2.50;;;;;;;9.29;99.65;97878.97;4169592;28;20122;-71
2022/09/26 01:34:30;;;;;;;5.68;2.90;;;;;;;9.21;100.00;97877.31;4169308;28;20777;-71
2022/09/26 01:37:14;;;;;;;4.13;3.00;;;;;;;9.10;100.00;97877.25;4177629;28;20098;-71
2022/09/26 01:39:41;;;;;;;4.90;3.58;;;;;;;9.06;100.00;97878.41;4188029;28;20052;-71
2022/09/26 01:41:48;;;;;;;5.05;3.30;;;;;;;9.01;100.00;97882.28;4188545;28;20083;-71
2022/09/26 01:44:00;;;;;;;6.18;3.70;;;;;;;8.97;100.00;97870.44;4187347;28;20044;-71
2022/09/26 01:46:26;;;;;;;6.03;4.82;;;;;;;8.96;100.00;97880.69;4188878;28;20369;-71
2022/09/26 01:48:36;;;;;;;9.05;4.90;;;;;;;8.88;100.00;97873.53;4187320;28;20358;-71
2022/09/26 01:50:44;;;;;;;6.32;4.10;;;;;;;8.87;100.00;97873.91;4189046;28;20074;-71
2022/09/26 01:52:44;;;;;;;4.50;3.53;;;;;;;8.83;100.00;97879.38;4189322;28;20058;-71
2022/09/26 01:54:52;;;;;;;5.55;3.58;;;;;;;8.77;100.00;97875.41;4187908;28;20260;-71
2022/09/26 01:56:57;;;;;;;6.43;3.05;;;;;;;8.71;100.00;97871.41;4188208;28;20389;-71
2022/09/26 01:59:07;;;;;;;3.97;3.00;;;;;;;8.65;100.00;97864.66;4188107;28;20044;-71
2022/09/26 02:01:12;;;;;;;3.65;2.90;;;;;;;8.63;100.00;97859.50;4173972;28;20421;-71
2022/09/26 02:03:17;;;;;;;3.10;2.72;;;;;;;8.55;100.00;97854.31;4188490;28;20388;-71
2022/09/26 02:05:26;;;;;;;5.78;3.35;;;;;;;8.52;100.00;97858.59;4187836;28;20380;-71
2022/09/26 02:07:52;;;;;;;5.65;3.03;;;;;;;8.47;100.00;97855.41;4188134;28;20103;-71
2022/09/26 02:10:01;;;;;;;5.78;3.83;;;;;;;8.42;100.00;97849.06;4187198;28;20052;-71
2022/09/26 02:12:06;;;;;;;3.22;2.70;;;;;;;8.40;100.00;97839.59;4187820;28;20416;-71
2022/09/26 02:14:14;;;;;;;3.72;3.20;;;;;;;8.37;100.00;97835.63;4187877;28;20028;-71
2022/09/26 02:16:21;;;;;;;6.28;3.30;;;;;;;8.35;100.00;97843.47;4188214;28;20025;-71
2022/09/26 02:18:39;;;;;;;4.82;2.95;;;;;;;8.29;100.00;97833.94;4187439;28;20409;-71
2022/09/26 02:20:48;;;;;;;4.80;3.35;;;;;;;8.25;100.00;97843.34;4188136;28;20072;-71
2022/09/26 02:22:49;;;;;;;8.32;3.30;;;;;;;8.15;100.00;97834.59;4187881;28;20076;-71
2022/09/26 02:24:49;;;;;;;6.30;3.72;;;;;;;8.05;100.00;97832.50;4187332;28;20102;-71
2022/09/26 02:26:51;;;;;;;5.43;3.45;;;;;;;8.02;100.00;97836.00;4187699;28;20044;-70
2022/09/26 02:28:51;;;;;;;8.70;3.33;;;;;;;8.01;100.00;97833.63;4187467;28;20044;-71
2022/09/26 02:30:53;;;;;;;5.35;2.95;;;;;;;7.98;100.00;97826.13;4187720;28;20055;-71
2022/09/26 02:32:54;;;;;;;6.13;3.35;;;;;;;7.97;100.00;97822.59;4188021;28;20067;-71
2022/09/26 02:34:55;;;;;;;4.68;3.10;;;;;;;7.94;100.00;97820.56;4187018;28;20052;-71
2022/09/26 02:36:56;;;;;;;4.07;3.15;;;;;;;7.90;100.00;97822.50;4187522;28;20041;-71
2022/09/26 02:38:56;;;;;;;5.68;3.20;;;;;;;7.88;100.00;97811.06;4187080;28;20040;-71
2022/09/26 02:41:05;;;;;;;4.43;3.55;;;;;;;7.83;100.00;97809.44;4187485;28;20091;-70
2022/09/26 02:43:46;;;;;;;5.70;3.63;;;;;;;7.79;100.00;97816.88;4187475;28;20072;-71
2022/09/26 02:45:56;;;;;;;4.93;3.67;;;;;;;7.67;100.00;97811.59;4187027;28;20437;-70
2022/09/26 02:48:22;;;;;;;5.55;3.35;;;;;;;7.65;100.00;97804.91;4187193;28;20052;-71
2022/09/26 02:50:59;;;;;;;6.47;3.35;;;;;;;7.52;100.00;97807.88;4186982;28;20392;-70
2022/09/26 02:53:12;;;;;;;7.43;3.50;;;;;;;7.47;100.00;97802.72;4188231;28;20139;-70
2022/09/26 02:55:20;;;;;;;8.05;4.22;;;;;;;7.51;100.00;97805.50;4185967;28;20060;-70
2022/09/26 02:57:45;;;;;;;9.55;4.70;;;;;;;7.40;100.00;97796.31;4187207;28;20040;-70
2022/09/26 02:59:56;;;;;;;7.35;3.92;;;;;;;7.41;100.00;97786.91;4186669;28;20048;-70
2022/09/26 03:02:08;;;;;;;5.88;3.92;;;;;;;7.38;100.00;97793.16;4187629;28;20090;-70
2022/09/26 03:04:29;;;;;;;6.47;4.00;;;;;;;7.38;100.00;97795.91;4186809;28;20037;-70
2022/09/26 03:06:36;;;;;;;7.07;3.88;;;;;;;7.35;100.00;97799.41;4187406;28;20046;-71
2022/09/26 03:08:42;;;;;;;6.63;3.65;;;;;;;7.35;100.00;97791.13;4185845;28;20044;-70
2022/09/26 03:10:44;;;;;;;6.38;4.30;;;;;;;7.35;100.00;97791.94;4187296;28;20067;-70
2022/09/26 03:12:45;;;;;;;6.95;3.90;;;;;;;7.35;100.00;97794.69;4187303;28;20289;-71
2022/09/26 03:14:47;;;;;;;7.85;4.45;;;;;;;7.32;100.00;97779.72;4187220;28;20060;-70
2022/09/26 03:16:50;;;;;;;5.90;3.80;;;;;;;7.31;100.00;97780.88;4186793;28;20086;-70
2022/09/26 03:18:58;;;;;;;9.07;4.57;;;;;;;7.31;100.00;97786.38;4186423;28;20070;-70
2022/09/26 03:20:58;;;;;;;5.05;3.78;;;;;;;7.32;100.00;97785.22;4186371;28;20420;-70
2022/09/26 03:23:01;;;;;;;5.18;3.72;;;;;;;7.32;100.00;97785.22;4187138;28;20132;-70
2022/09/26 03:25:05;;;;;;;7.78;4.32;;;;;;;7.31;100.00;97789.13;4187139;28;20449;-70
2022/09/26 03:27:05;;;;;;;7.80;4.03;;;;;;;7.25;100.00;97787.09;4186641;28;20052;-70
2022/09/26 03:29:06;;;;;;;5.93;3.50;;;;;;;7.23;100.00;97789.41;4186079;28;20404;-70
2022/09/26 03:31:06;;;;;;;4.85;3.10;;;;;;;7.20;100.00;97782.72;4186686;28;20123;-70
2022/09/26 03:33:07;;;;;;;7.38;3.70;;;;;;;7.21;100.00;97789.00;4187400;28;20040;-70
2022/09/26 03:35:08;;;;;;;5.45;3.10;;;;;;;7.18;100.00;97790.53;4186862;28;20268;-70
2022/09/26 03:37:08;;;;;;;5.45;3.22;;;;;;;7.17;100.00;97779.91;4186941;28;20170;-70
2022/09/26 03:39:09;;;;;;;6.13;3.50;;;;;;;7.13;100.00;97771.59;4185664;28;20056;-70
2022/09/26 03:41:09;;;;;;;6.60;3.40;;;;;;;7.07;100.00;97770.34;4187042;28;20488;-70
2022/09/26 03:43:10;;;;;;;6.30;3.92;;;;;;;7.07;100.00;97780.56;4186612;28;20267;-70
2022/09/26 03:45:10;;;;;;;3.83;2.83;;;;;;;7.06;100.00;97767.97;4184374;28;20456;-70
2022/09/26 03:47:11;;;;;;;5.00;3.40;;;;;;;7.08;100.00;97765.63;4185649;28;20408;-70
2022/09/26 03:49:12;;;;;;;6.05;3.17;;;;;;;7.12;100.00;97769.25;4186146;28;20048;-70
2022/09/26 03:51:13;;;;;;;6.03;3.58;;;;;;;7.06;100.00;97749.50;4186690;28;20041;-70
2022/09/26 03:53:13;;;;;;;5.63;2.90;;;;;;;7.04;99.13;97751.84;4186942;28;20052;-70
2022/09/26 03:55:14;;;;;;;5.95;2.97;;;;;;;6.92;98.98;97743.78;4186146;28;20057;-70
2022/09/26 03:57:16;;;;;;;5.53;3.08;;;;;;;6.86;99.65;97751.56;4186004;28;20431;-70
2022/09/26 03:59:16;;;;;;;5.37;3.23;;;;;;;6.78;99.85;97741.63;4185828;28;20472;-70
2022/09/26 04:01:19;;;;;;;6.07;3.45;;;;;;;6.67;99.97;97752.47;4173683;28;20304;-70
2022/09/26 04:03:20;;;;;;;7.38;3.22;;;;;;;6.59;100.00;97745.28;4186249;28;20040;-70
2022/09/26 04:05:20;;;;;;;5.85;3.10;;;;;;;6.50;100.00;97749.44;4186225;28;20052;-70
2022/09/26 04:07:21;;;;;;;5.22;3.10;;;;;;;6.44;100.00;97741.50;4185715;28;20545;-70
2022/09/26 04:09:23;;;;;;;5.60;2.88;;;;;;;6.44;100.00;97741.50;4185639;28;20125;-70
2022/09/26 04:11:23;;;;;;;5.82;3.10;;;;;;;6.42;100.00;97738.34;4186356;28;20074;-70
2022/09/26 04:13:24;;;;;;;3.80;2.95;;;;;;;6.47;100.00;97740.00;4186420;28;20080;-70
2022/09/26 04:15:24;;;;;;;5.75;3.03;;;;;;;6.48;100.00;97736.09;4186391;28;20093;-70
2022/09/26 04:17:24;;;;;;;4.50;2.60;;;;;;;6.46;100.00;97730.19;4185997;28;20119;-70
2022/09/26 04:19:25;;;;;;;7.40;3.03;;;;;;;6.43;100.00;97731.69;4185890;28;20048;-70
2022/09/26 04:21:26;;;;;;;8.35;3.45;;;;;;;6.37;100.00;97729.59;4185325;28;20052;-70
2022/09/26 04:23:27;;;;;;;6.45;3.30;;;;;;;6.37;100.00;97724.13;4186001;28;20037;-70
2022/09/26 04:25:28;;;;;;;6.88;3.47;;;;;;;6.34;100.00;97716.63;4186286;28;20365;-70
2022/09/26 04:27:28;;;;;;;5.93;3.88;;;;;;;6.35;100.00;97719.00;4185842;28;20063;-70
2022/09/26 04:29:29;;;;;;;6.18;3.40;;;;;;;6.34;100.00;97719.38;4185502;28;20033;-70
2022/09/26 04:31:29;;;;;;;5.13;3.33;;;;;;;6.37;100.00;97724.94;4186243;28;20076;-70
2022/09/26 04:33:31;;;;;;;7.03;3.88;;;;;;;6.33;100.00;97723.28;4186018;28;20036;-70
2022/09/26 04:35:31;;;;;;;7.80;3.92;;;;;;;6.25;100.00;97713.34;4186078;28;20056;-70
2022/09/26 04:37:33;;;;;;;7.70;4.00;;;;;;;6.26;100.00;97710.22;4185774;28;20059;-70
2022/09/26 04:39:34;;;;;;;12.30;3.33;;;;;;;6.27;100.00;97713.75;4185052;28;20056;-70
2022/09/26 04:41:36;;;;;;;6.97;3.75;;;;;;;6.18;100.00;97698.31;4185802;28;20056;-70
2022/09/26 04:43:37;;;;;;;6.13;3.45;;;;;;;6.16;100.00;97708.09;4186433;28;20048;-70
2022/09/26 04:45:42;;;;;;;5.68;3.30;;;;;;;6.13;100.00;97711.59;4185251;28;20420;-70
2022/09/26 04:47:42;;;;;;;6.53;3.05;;;;;;;6.05;99.81;97718.91;4185931;28;20048;-70
2022/09/26 04:49:42;;;;;;;6.53;3.42;;;;;;;5.90;100.00;97711.56;4185131;28;20045;-70
2022/09/26 04:51:43;;;;;;;5.82;3.33;;;;;;;5.83;99.88;97712.22;4186248;28;20059;-70
2022/09/26 04:53:43;;;;;;;4.93;3.08;;;;;;;5.77;100.00;97705.44;4185766;28;20053;-70
2022/09/26 04:55:45;;;;;;;4.40;3.47;;;;;;;5.70;100.00;97705.31;4186156;28;20051;-70
2022/09/26 04:57:48;;;;;;;4.00;3.30;;;;;;;5.63;100.00;97700.50;4185338;28;20048;-70
2022/09/26 04:59:49;;;;;;;4.30;3.20;;;;;;;5.55;99.94;97704.28;4185628;28;20040;-70
2022/09/26 05:01:49;;;;;;;4.38;3.53;;;;;;;5.45;100.00;97696.59;4173757;28;20136;-70
2022/09/26 05:03:50;;;;;;;10.57;3.53;;;;;;;5.43;100.00;97696.19;4185187;28;20041;-70
2022/09/26 05:05:50;;;;;;;6.88;4.07;;;;;;;5.39;100.00;97695.34;4185381;28;20519;-70
2022/09/26 05:07:51;;;;;;;5.97;3.83;;;;;;;5.42;100.00;97694.59;4185430;28;20087;-70
2022/09/26 05:09:51;;;;;;;5.22;3.90;;;;;;;5.32;100.00;97693.25;4184919;28;20167;-70
2022/09/26 05:11:52;;;;;;;4.57;3.72;;;;;;;5.30;100.00;97689.28;4185438;28;20469;-70
2022/09/26 05:13:52;;;;;;;5.75;3.42;;;;;;;5.30;100.00;97687.34;4185864;28;20080;-70
2022/09/26 05:15:54;;;;;;;6.85;4.20;;;;;;;5.29;100.00;97691.22;4184603;28;20059;-70
2022/09/26 05:17:58;;;;;;;5.53;4.10;;;;;;;5.33;100.00;97694.03;4185790;28;20085;-70
2022/09/26 05:19:59;;;;;;;7.97;4.50;;;;;;;5.23;100.00;97687.19;4173082;28;20080;-70
2022/09/26 05:22:00;;;;;;;6.07;4.18;;;;;;;5.18;100.00;97692.16;4200497;28;20080;-70
2022/09/26 05:26:23;;;;;;;8.38;4.00;;;;;;;5.19;100.00;97683.56;4185071;28;20051;-70
2022/09/26 05:28:25;;;;;;;6.50;3.83;;;;;;;5.25;100.00;97673.13;4184976;28;20036;-70
2022/09/26 05:30:31;;;;;;;4.25;3.55;;;;;;;5.28;100.00;97669.63;4185945;28;20044;-70
2022/09/26 05:32:31;;;;;;;5.10;3.22;;;;;;;5.28;100.00;97666.88;4186026;28;20049;-70
2022/09/26 05:34:31;;;;;;;6.13;3.47;;;;;;;5.34;100.00;97665.44;4184964;28;20118;-70
2022/09/26 05:36:32;;;;;;;5.93;3.20;;;;;;;5.46;100.00;97673.53;4185118;28;20461;-70
2022/09/26 05:38:33;;;;;;;4.88;3.85;;;;;;;5.52;100.00;97674.78;4185482;28;20036;-70
2022/09/26 05:42:59;;;;;;;6.43;3.10;;;;;;;5.46;100.00;97673.53;4185423;28;20262;-70
2022/09/26 05:45:02;;;;;;;6.93;2.67;;;;;;;5.41;100.00;97679.31;4185308;28;20044;-70
2022/09/26 05:47:02;;;;;;;4.80;2.90;;;;;;;5.38;100.00;97673.72;4185268;28;20113;-70
2022/09/26 05:49:02;;;;;;;4.05;2.40;;;;;;;5.30;100.00;97665.41;4184404;28;20052;-70
2022/09/26 05:51:11;;;;;;;6.45;2.40;;;;;;;5.23;100.00;97665.25;4185060;28;20051;-70
2022/09/26 05:53:11;;;;;;;5.57;2.88;;;;;;;5.20;100.00;97662.44;4185475;28;20485;-70
2022/09/26 05:55:12;;;;;;;7.10;2.65;;;;;;;5.17;100.00;97658.47;4185072;28;20044;-70
2022/09/26 05:57:12;;;;;;;3.85;2.40;;;;;;;5.16;100.00;97658.84;4185796;28;20151;-70
2022/09/26 05:59:12;;;;;;;3.90;2.38;;;;;;;5.22;100.00;97662.88;4184841;28;20365;-70
2022/09/26 06:01:15;;;;;;;4.03;2.58;;;;;;;5.31;100.00;97655.22;4184826;28;20045;-70
2022/09/26 06:03:15;;;;;;;4.05;2.67;;;;;;;5.34;100.00;97662.72;4185381;28;20380;-70
2022/09/26 06:05:16;;;;;;;4.10;2.85;;;;;;;5.35;100.00;97656.84;4184818;28;20044;-70
2022/09/26 06:07:16;;;;;;;3.05;2.55;;;;;;;5.42;100.00;97655.41;4185445;28;20128;-70
2022/09/26 06:09:16;;;;;;;3.50;2.45;;;;;;;5.52;100.00;97665.78;4184542;28;20044;-70
2022/09/26 06:11:23;;;;;;;4.53;2.55;;;;;;;5.57;100.00;97657.25;4188149;28;20609;-70
2022/09/26 06:13:24;;;;;;;5.07;3.30;;;;;;;5.71;100.00;97665.75;4188412;28;20103;-70
2022/09/26 06:15:24;;;;;;;5.05;2.92;;;;;;;5.81;100.00;97661.59;4187953;28;20430;-70
2022/09/26 06:17:25;;;;;;;3.72;3.00;;;;;;;5.85;100.00;97654.19;4187297;28;20032;-70
2022/09/26 06:19:25;;;;;;;4.88;2.88;;;;;;;5.92;100.00;97654.34;4188632;28;20702;-70
2022/09/26 06:21:26;;;;;;;6.53;3.00;;;;;;;5.96;100.00;97655.22;4188400;28;20044;-70
2022/09/26 06:23:26;;;;;;;3.75;3.10;;;;;;;5.97;100.00;97656.81;4188131;28;20106;-70
2022/09/26 06:25:28;;;;;;;7.25;3.35;;;;;;;5.99;100.00;97657.22;4186185;28;20152;-70
2022/09/26 06:27:28;;;;;;;6.85;2.85;;;;;;;6.01;100.00;97659.59;4130682;28;20064;-70
2022/09/26 06:29:28;;;;;;;8.18;3.38;;;;;;;6.07;100.00;97655.38;4187728;28;20241;-70
2022/09/26 06:31:29;;;;;;;8.40;3.70;;;;;;;6.13;100.00;97657.44;4186931;28;20079;-70
2022/09/26 06:33:29;;;;;;;5.63;3.75;;;;;;;6.20;100.00;97645.75;4186500;28;20400;-70
2022/09/26 06:35:30;;;;;;;6.18;4.40;;;;;;;6.24;100.00;97641.13;4187685;28;20082;-70
2022/09/26 06:37:30;;;;;;;6.32;3.88;;;;;;;6.31;100.00;97637.69;4187808;28;20044;-70
2022/09/26 06:39:34;;;;;;;7.32;3.65;;;;;;;6.37;100.00;97633.44;4187830;28;20125;-70
2022/09/26 06:41:34;;;;;;;6.32;3.63;;;;;;;6.42;100.00;97633.13;4187471;28;20041;-70
2022/09/26 06:43:35;;;;;;;4.32;3.10;;;;;;;6.50;100.00;97639.53;4187696;28;20503;-70
2022/09/26 06:45:35;;;;;;;6.55;3.30;;;;;;;6.59;100.00;97638.09;4187275;28;20037;-70
2022/09/26 06:47:36;;;;;;;6.78;3.50;;;;;;;6.67;100.00;97628.78;4186504;28;20203;-70
2022/09/26 06:49:36;;;;;;;8.63;6.05;;;;;;;6.81;100.00;97619.13;4186888;28;20673;-70
2022/09/26 06:51:37;;;;;;;8.73;5.35;;;;;;;6.89;100.00;97629.84;4187141;28;20032;-70
2022/09/26 06:53:38;;;;;;;7.47;4.00;;;;;;;7.04;100.00;97611.56;4187727;28;20537;-70
2022/09/26 06:55:38;;;;;;;5.95;3.72;;;;;;;7.14;99.50;97613.63;4187106;28;20048;-70
2022/09/26 06:57:41;;;;;;;6.60;3.08;;;;;;;7.25;98.31;97606.28;4185479;28;20076;-70
2022/09/26 06:59:41;;;;;;;5.05;2.97;;;;;;;7.44;96.62;97607.25;4187778;28;20044;-70
2022/09/26 07:01:44;;;;;;;3.22;2.67;;;;;;;7.57;96.13;97601.09;4187985;28;20052;-70
2022/09/26 07:03:45;;;;;;;5.38;2.85;;;;;;;7.70;94.67;97600.81;4187146;28;20041;-70
2022/09/26 07:05:45;;;;;;;3.22;2.78;;;;;;;7.80;94.32;97603.66;4186554;28;20301;-70
2022/09/26 07:07:47;;;;;;;3.15;2.47;;;;;;;7.96;93.37;97599.84;4187161;28;20497;-70
2022/09/26 07:09:48;;;;;;;5.32;2.65;;;;;;;8.04;91.48;97593.22;4186957;28;20045;-70
2022/09/26 07:11:48;;;;;;;3.60;2.38;;;;;;;8.21;91.96;97592.56;4186611;28;20170;-70
2022/09/26 07:13:49;;;;;;;3.80;2.53;;;;;;;8.33;91.63;97591.44;4184919;28;20081;-70
2022/09/26 07:15:49;;;;;;;4.78;3.45;;;;;;;8.36;91.21;97594.25;4188147;28;20721;-70
2022/09/26 07:17:50;;;;;;;4.45;3.00;;;;;;;8.40;90.42;97603.31;4188745;28;20132;-70
2022/09/26 07:19:51;;;;;;;3.55;2.40;;;;;;;8.44;90.98;97590.38;4186851;28;20542;-70
2022/09/26 07:21:52;;;;;;;6.10;2.42;;;;;;;8.55;89.59;97595.94;4186415;28;20048;-70
2022/09/26 07:23:56;;;;;;;3.90;2.22;;;;;;;8.70;88.84;97592.06;4186736;28;20163;-70
2022/09/26 07:25:56;;;;;;;7.47;2.63;;;;;;;8.81;89.66;97599.59;4187069;28;20106;-70
2022/09/26 07:27:57;;;;;;;6.68;3.78;;;;;;;8.88;89.14;97599.63;4187005;28;20040;-70
2022/09/26 07:29:57;;;;;;;4.53;2.45;;;;;;;8.95;89.21;97594.16;4186419;28;20105;-70
2022/09/26 07:31:58;;;;;;;4.43;2.58;;;;;;;9.13;88.90;97595.00;4187121;28;20078;-70
2022/09/26 07:33:58;;;;;;;7.45;2.75;;;;;;;9.30;87.80;97593.47;4186523;28;20063;-70
2022/09/26 07:35:58;;;;;;;3.85;2.53;;;;;;;9.44;87.48;97593.50;4186519;28;20044;-70
2022/09/26 07:37:59;;;;;;;4.10;2.38;;;;;;;9.54;87.48;97587.19;4186913;28;20048;-70
2022/09/26 07:39:59;;;;;;;4.80;2.45;;;;;;;9.65;85.16;97589.16;4186300;28;20051;-70
2022/09/26 07:42:02;;;;;;;7.75;2.40;;;;;;;9.71;84.76;97585.63;4186918;28;20084;-70
2022/09/26 07:44:02;;;;;;;3.53;2.30;;;;;;;9.75;84.71;97583.66;4185248;28;20052;-70
2022/09/26 07:50:58;;;;;;;4.40;3.15;;;;;;;10.14;82.98;97593.91;4169898;28;20090;-70
2022/09/26 07:52:59;;;;;;;6.77;3.97;;;;;;;10.20;82.57;97595.09;4185903;28;20048;-70
2022/09/26 07:54:59;;;;;;;5.85;3.00;;;;;;;10.23;82.84;97590.75;4186351;28;20117;-70
2022/09/26 07:56:59;;;;;;;9.43;3.30;;;;;;;10.31;82.35;97584.81;4185956;28;20036;-70
2022/09/26 07:59:04;;;;;;;4.75;2.38;;;;;;;10.34;81.92;97580.47;4185918;28;20447;-70
2022/09/26 08:01:06;;;;;;;4.00;2.20;;;;;;;10.45;79.81;97578.47;4186661;28;20085;-70
2022/09/26 08:03:07;;;;;;;;;;;;;;;10.48;80.55;97588.75;4184906;28;20054;-70
2022/09/26 08:05:16;;;;;;;5.85;2.83;;;;;;;10.51;80.77;97585.19;4186164;28;20011;-70
2022/09/26 08:07:16;;;;;;;6.95;3.47;;;;;;;10.52;81.39;97583.22;4186778;28;20385;-70
2022/09/26 08:09:17;;;;;;;4.43;2.40;;;;;;;10.53;80.35;97591.09;4186430;28;20052;-70
2022/09/26 08:11:19;;;;;;;4.82;2.70;;;;;;;10.65;79.96;97576.84;4187004;28;20484;-70
2022/09/26 08:13:19;;;;;;;4.65;2.88;;;;;;;10.68;79.55;97576.06;4186371;28;20040;-70
2022/09/26 08:15:20;;;;;;;5.97;2.78;;;;;;;10.74;79.84;97575.63;4185879;28;20425;-70
2022/09/26 08:17:20;;;;;;;6.05;3.55;;;;;;;10.81;79.00;97561.75;4185161;28;20056;-69
2022/09/26 08:19:21;;;;;;;11.98;4.78;;;;;;;10.89;79.38;97569.63;4185599;28;20467;-70
2022/09/26 08:21:22;;;;;;;6.28;3.40;;;;;;;10.91;78.40;97558.94;4187053;28;20048;-70
2022/09/26 08:23:22;;;;;;;4.72;2.88;;;;;;;11.01;78.33;97562.09;4186486;28;20098;-70
2022/09/26 08:25:22;;;;;;;4.32;2.95;;;;;;;11.06;79.09;97569.94;4185871;28;20432;-70
2022/09/26 08:27:23;;;;;;;5.40;2.50;;;;;;;11.10;78.92;97573.50;4186341;28;20048;-70
2022/09/26 08:29:23;;;;;;;5.88;2.40;;;;;;;11.13;78.52;97575.47;4185541;28;20071;-70
2022/09/26 08:31:24;;;;;;;3.92;2.45;;;;;;;11.20;76.25;97569.88;4185861;28;20203;-70
2022/09/26 08:33:24;;;;;;;7.68;3.17;;;;;;;11.27;76.96;97572.63;4185291;28;20093;-70
2022/09/26 08:35:26;;;;;;;3.25;2.35;;;;;;;11.24;76.50;97576.97;4186428;28;20048;-70
2022/09/26 08:37:26;;;;;;;4.80;2.72;;;;;;;11.25;76.80;97561.94;4185958;28;20053;-70
2022/09/26 08:39:27;;;;;;;4.22;2.25;;;;;;;11.23;77.37;97555.22;4185658;28;20583;-70
2022/09/26 08:41:46;;;;;;;5.03;2.30;;;;;;;11.28;78.09;97549.28;4185816;28;20063;-70
2022/09/26 08:43:55;;;;;;;4.47;2.22;;;;;;;11.33;77.07;97559.13;4185530;28;20037;-70
2022/09/26 08:48:31;;;;;;;7.00;2.42;;;;;;;11.47;75.96;97551.50;4185785;28;20048;-70
2022/09/26 08:50:52;;;;;;;6.47;2.38;;;;;;;11.50;76.22;97542.41;4186395;28;20040;-70
2022/09/26 08:53:02;;;;;;;3.97;2.20;;;;;;;11.56;76.92;97550.25;4184024;28;20688;-69
2022/09/26 08:55:24;;;;;;;4.78;2.50;;;;;;;11.58;76.97;97547.88;4185662;28;20055;-69
2022/09/26 08:57:41;;;;;;;8.35;2.67;;;;;;;11.60;77.31;97551.03;4185213;28;20041;-69
2022/09/26 08:59:45;;;;;;;3.63;2.47;;;;;;;11.60;76.40;97551.81;4184997;28;20099;-69
2022/09/26 09:01:48;;;;;;;4.00;2.40;;;;;;;11.58;77.25;97547.88;4185172;28;20342;-69
2022/09/26 09:04:06;;;;;;;3.47;2.47;;;;;;;11.60;76.59;97539.97;4172161;28;20659;-69
2022/09/26 09:06:10;;;;;;;5.13;2.63;;;;;;;11.66;76.03;97532.75;4185317;28;20052;-69
2022/09/26 09:08:20;;;;;;;3.08;2.72;;;;;;;11.69;75.25;97538.28;4186469;28;20283;-70
2022/09/26 09:10:45;;;;;;;4.85;3.13;;;;;;;11.80;76.72;97535.47;4185686;28;20389;-69
2022/09/26 09:13:06;;;;;;;5.22;3.03;;;;;;;11.79;75.95;97531.88;4185526;28;20059;-69
2022/09/26 09:15:20;;;;;;;5.78;2.78;;;;;;;11.84;75.63;97521.59;4185119;28;20493;-69
2022/09/26 09:17:50;;;;;;;4.47;2.78;;;;;;;11.86;74.76;97519.19;4185835;28;20048;-69
2022/09/26 09:20:27;;;;;;;3.33;2.83;;;;;;;11.87;75.08;97521.53;4185044;28;20079;-69
2022/09/26 09:23:00;;;;;;;3.15;2.80;;;;;;;11.77;77.53;97517.66;4185687;28;20131;-69
2022/09/26 09:25:17;;;;;;;5.85;3.13;;;;;;;11.65;77.63;97520.09;4185122;28;20072;-69
2022/09/26 09:27:32;;;;;;;3.53;2.83;;;;;;;11.59;77.42;97514.25;4185122;28;20044;-69
2022/09/26 09:29:51;;;;;;;6.95;3.33;;;;;;;11.70;76.51;97520.47;4184651;28;20313;-69
2022/09/26 09:31:54;;;;;;;5.15;2.92;;;;;;;11.78;76.31;97519.22;4185136;28;20044;-69
2022/09/26 09:34:02;;;;;;;5.90;3.35;;;;;;;11.83;77.92;97504.16;4185535;28;20473;-69
2022/09/26 09:36:10;;;;;;;4.90;3.15;;;;;;;12.00;76.36;97513.53;4184393;28;20082;-70
2022/09/26 09:38:18;;;;;;;5.65;3.05;;;;;;;11.91;75.89;97511.19;4186102;28;20043;-70
2022/09/26 09:40:27;;;;;;;6.72;3.75;;;;;;;11.98;74.09;97515.91;4185520;28;20052;-70
2022/09/26 09:42:46;;;;;;;6.07;2.55;;;;;;;12.05;74.46;97516.63;4185055;28;20049;-70
2022/09/26 09:45:14;;;;;;;5.28;3.00;;;;;;;12.13;72.62;97511.78;4187753;28;20648;-69
2022/09/26 09:47:17;;;;;;;4.78;2.90;;;;;;;12.19;74.90;97503.81;4151135;28;20052;-69
2022/09/26 09:49:21;;;;;;;;;;;;;;;12.23;74.08;97510.09;4186836;28;20036;-70
2022/09/26 09:51:51;;;;;;;6.10;3.33;;;;;;;12.22;74.77;97506.53;4187930;28;19927;-70
2022/09/26 09:54:06;;;;;;;4.85;3.00;;;;;;;12.27;73.62;97491.44;4187791;28;20057;-69
2022/09/26 09:56:12;;;;;;;5.57;3.38;;;;;;;12.38;75.59;97500.44;4187833;28;20055;-70
2022/09/26 09:58:19;;;;;;;6.25;3.17;;;;;;;12.43;74.52;97502.75;4188750;28;20072;-70
2022/09/26 10:00:28;;;;;;;7.57;3.85;;;;;;;12.49;74.22;97508.63;4188838;28;20399;-70
2022/09/26 10:02:42;;;;;;;5.13;3.17;;;;;;;12.48;74.24;97493.97;4188328;28;20366;-70
2022/09/26 10:04:51;;;;;;;5.35;3.10;;;;;;;12.54;74.88;97497.06;4188047;28;20110;-70